Terminal Aerodrome Forecast
Issued by NWS

Home | Current Version | Previous Version | Graphics & Text | Print | Product List | Glossary On
Versions: 1 2 3 4 5 6 7 8 9 10 11 12 13 14 15 16 17 18 19 20 21
049
FTUS43 KGRB 181132
TAFCWA
TAF
KCWA 181132Z 1812/1912 14007KT P6SM BKN090
     FM181500 15011G17KT P6SM OVC090
     FM181700 18017G26KT P6SM BKN140 WS020/20050KT
     FM190200 19009KT P6SM BKN080 WS020/23045KT
     FM190700 15003KT P6SM BKN050
     FM190900 03005KT P6SM SCT025 OVC040
      TEMPO 1910/1912 BKN015=

USA.gov is the U.S. government's official web portal to all federal, state and local government web resources and services.